sensor_id;sensor_type;location;lat;lon;timestamp;pressure;altitude;pressure_sealevel;temperature
4421;BMP180;11824;51.178;13.546;2022-09-24T00:02:21;100122.00;;;9.50
4421;BMP180;11824;51.178;13.546;2022-09-24T00:04:50;100119.00;;;9.50
4421;BMP180;11824;51.178;13.546;2022-09-24T00:07:19;100115.00;;;9.50
4421;BMP180;11824;51.178;13.546;2022-09-24T00:09:47;100119.00;;;9.50
4421;BMP180;11824;51.178;13.546;2022-09-24T00:12:17;100114.00;;;9.50
4421;BMP180;11824;51.178;13.546;2022-09-24T00:14:45;100103.00;;;9.50
4421;BMP180;11824;51.178;13.546;2022-09-24T00:17:14;100103.00;;;9.50
4421;BMP180;11824;51.178;13.546;2022-09-24T00:19:42;100104.00;;;9.50
4421;BMP180;11824;51.178;13.546;2022-09-24T00:22:11;100100.00;;;9.50
4421;BMP180;11824;51.178;13.546;2022-09-24T00:24:39;100091.00;;;9.50
4421;BMP180;11824;51.178;13.546;2022-09-24T00:27:27;100094.00;;;9.50
4421;BMP180;11824;51.178;13.546;2022-09-24T00:29:55;100094.00;;;9.40
4421;BMP180;11824;51.178;13.546;2022-09-24T00:32:24;100097.00;;;9.40
4421;BMP180;11824;51.178;13.546;2022-09-24T00:34:53;100087.00;;;9.40
4421;BMP180;11824;51.178;13.546;2022-09-24T00:37:21;100092.00;;;9.40
4421;BMP180;11824;51.178;13.546;2022-09-24T00:39:50;100083.00;;;9.30
4421;BMP180;11824;51.178;13.546;2022-09-24T00:42:18;100083.00;;;9.30
4421;BMP180;11824;51.178;13.546;2022-09-24T00:44:54;100077.00;;;9.20
4421;BMP180;11824;51.178;13.546;2022-09-24T00:47:33;100077.00;;;9.20
4421;BMP180;11824;51.178;13.546;2022-09-24T00:50:15;100080.00;;;9.10
4421;BMP180;11824;51.178;13.546;2022-09-24T00:52:47;100076.00;;;9.00
4421;BMP180;11824;51.178;13.546;2022-09-24T00:55:17;100068.00;;;9.00
4421;BMP180;11824;51.178;13.546;2022-09-24T00:57:48;100063.00;;;8.90
4421;BMP180;11824;51.178;13.546;2022-09-24T01:00:19;100058.00;;;8.90
4421;BMP180;11824;51.178;13.546;2022-09-24T01:02:52;100057.00;;;8.80
4421;BMP180;11824;51.178;13.546;2022-09-24T01:05:21;100062.00;;;8.80
4421;BMP180;11824;51.178;13.546;2022-09-24T01:07:49;100052.00;;;8.70
4421;BMP180;11824;51.178;13.546;2022-09-24T01:10:21;100053.00;;;8.70
4421;BMP180;11824;51.178;13.546;2022-09-24T01:13:11;100051.00;;;8.70
4421;BMP180;11824;51.178;13.546;2022-09-24T01:15:47;100055.00;;;8.60
4421;BMP180;11824;51.178;13.546;2022-09-24T01:18:24;100039.00;;;8.60
4421;BMP180;11824;51.178;13.546;2022-09-24T01:21:16;100057.00;;;8.60
4421;BMP180;11824;51.178;13.546;2022-09-24T01:24:16;100056.00;;;8.50
4421;BMP180;11824;51.178;13.546;2022-09-24T01:26:54;100049.00;;;8.50
4421;BMP180;11824;51.178;13.546;2022-09-24T01:32:27;100048.00;;;8.50
4421;BMP180;11824;51.178;13.546;2022-09-24T01:35:01;100049.00;;;8.50
4421;BMP180;11824;51.178;13.546;2022-09-24T01:37:32;100046.00;;;8.50
4421;BMP180;11824;51.178;13.546;2022-09-24T01:40:03;100038.00;;;8.50
4421;BMP180;11824;51.178;13.546;2022-09-24T01:42:33;100035.00;;;8.40
4421;BMP180;11824;51.178;13.546;2022-09-24T01:45:05;100034.00;;;8.40
4421;BMP180;11824;51.178;13.546;2022-09-24T01:47:37;100032.00;;;8.40
4421;BMP180;11824;51.178;13.546;2022-09-24T01:50:08;100019.00;;;8.40
4421;BMP180;11824;51.178;13.546;2022-09-24T01:52:42;100025.00;;;8.30
4421;BMP180;11824;51.178;13.546;2022-09-24T01:55:14;100025.00;;;8.30
4421;BMP180;11824;51.178;13.546;2022-09-24T01:57:47;100025.00;;;8.30
4421;BMP180;11824;51.178;13.546;2022-09-24T02:00:19;100028.00;;;8.30
4421;BMP180;11824;51.178;13.546;2022-09-24T02:02:52;100017.00;;;8.20
4421;BMP180;11824;51.178;13.546;2022-09-24T02:05:31;100019.00;;;8.30
4421;BMP180;11824;51.178;13.546;2022-09-24T02:08:04;100025.00;;;8.20
4421;BMP180;11824;51.178;13.546;2022-09-24T02:10:39;100028.00;;;8.20
4421;BMP180;11824;51.178;13.546;2022-09-24T02:13:12;100027.00;;;8.20
4421;BMP180;11824;51.178;13.546;2022-09-24T02:15:45;100030.00;;;8.20
4421;BMP180;11824;51.178;13.546;2022-09-24T02:18:18;100024.00;;;8.20
4421;BMP180;11824;51.178;13.546;2022-09-24T02:20:50;100033.00;;;8.20
4421;BMP180;11824;51.178;13.546;2022-09-24T02:23:20;100031.00;;;8.20
4421;BMP180;11824;51.178;13.546;2022-09-24T02:25:54;100029.00;;;8.20
4421;BMP180;11824;51.178;13.546;2022-09-24T02:28:25;100026.00;;;8.20
4421;BMP180;11824;51.178;13.546;2022-09-24T02:30:59;100024.00;;;8.10
4421;BMP180;11824;51.178;13.546;2022-09-24T02:33:30;100010.00;;;8.10
4421;BMP180;11824;51.178;13.546;2022-09-24T02:36:19;100015.00;;;8.00
4421;BMP180;11824;51.178;13.546;2022-09-24T02:38:51;100009.00;;;8.00
4421;BMP180;11824;51.178;13.546;2022-09-24T02:41:21;100011.00;;;8.00
4421;BMP180;11824;51.178;13.546;2022-09-24T02:43:50;100010.00;;;8.00
4421;BMP180;11824;51.178;13.546;2022-09-24T02:46:20;100009.00;;;7.90
4421;BMP180;11824;51.178;13.546;2022-09-24T02:48:49;100011.00;;;7.90
4421;BMP180;11824;51.178;13.546;2022-09-24T02:51:17;100012.00;;;7.90
4421;BMP180;11824;51.178;13.546;2022-09-24T02:53:46;100009.00;;;7.90
4421;BMP180;11824;51.178;13.546;2022-09-24T02:56:14;100006.00;;;7.80
4421;BMP180;11824;51.178;13.546;2022-09-24T02:58:43;100005.00;;;7.90
4421;BMP180;11824;51.178;13.546;2022-09-24T03:01:11;99999.00;;;7.90
4421;BMP180;11824;51.178;13.546;2022-09-24T03:03:41;99997.00;;;7.80
4421;BMP180;11824;51.178;13.546;2022-09-24T03:06:10;99986.00;;;7.90
4421;BMP180;11824;51.178;13.546;2022-09-24T03:08:39;99985.00;;;7.90
4421;BMP180;11824;51.178;13.546;2022-09-24T03:11:09;99993.00;;;7.90
4421;BMP180;11824;51.178;13.546;2022-09-24T03:13:44;99993.00;;;7.90
4421;BMP180;11824;51.178;13.546;2022-09-24T03:16:13;99993.00;;;7.90
4421;BMP180;11824;51.178;13.546;2022-09-24T03:18:44;99987.00;;;7.90
4421;BMP180;11824;51.178;13.546;2022-09-24T03:21:14;99986.00;;;7.90
4421;BMP180;11824;51.178;13.546;2022-09-24T03:23:43;99989.00;;;8.00
4421;BMP180;11824;51.178;13.546;2022-09-24T03:26:12;99978.00;;;8.00
4421;BMP180;11824;51.178;13.546;2022-09-24T03:28:41;99979.00;;;8.00
4421;BMP180;11824;51.178;13.546;2022-09-24T03:31:10;99979.00;;;8.00
4421;BMP180;11824;51.178;13.546;2022-09-24T03:33:40;99980.00;;;8.00
4421;BMP180;11824;51.178;13.546;2022-09-24T03:36:12;99979.00;;;8.00
4421;BMP180;11824;51.178;13.546;2022-09-24T03:38:42;99984.00;;;8.00
4421;BMP180;11824;51.178;13.546;2022-09-24T03:41:12;99983.00;;;8.00
4421;BMP180;11824;51.178;13.546;2022-09-24T03:43:41;99981.00;;;8.00
4421;BMP180;11824;51.178;13.546;2022-09-24T03:46:11;99982.00;;;8.00
4421;BMP180;11824;51.178;13.546;2022-09-24T03:48:40;99975.00;;;7.90
4421;BMP180;11824;51.178;13.546;2022-09-24T03:51:12;99970.00;;;7.90
4421;BMP180;11824;51.178;13.546;2022-09-24T03:53:41;99975.00;;;7.90
4421;BMP180;11824;51.178;13.546;2022-09-24T03:56:09;99964.00;;;7.80
4421;BMP180;11824;51.178;13.546;2022-09-24T03:58:39;99963.00;;;7.80
4421;BMP180;11824;51.178;13.546;2022-09-24T04:01:09;99968.00;;;7.80
4421;BMP180;11824;51.178;13.546;2022-09-24T04:03:39;99964.00;;;7.70
4421;BMP180;11824;51.178;13.546;2022-09-24T04:06:07;99962.00;;;7.70
4421;BMP180;11824;51.178;13.546;2022-09-24T04:08:37;99954.00;;;7.70
4421;BMP180;11824;51.178;13.546;2022-09-24T04:11:06;99960.00;;;7.70
4421;BMP180;11824;51.178;13.546;2022-09-24T04:13:34;99959.00;;;7.70
4421;BMP180;11824;51.178;13.546;2022-09-24T04:16:03;99963.00;;;7.70
4421;BMP180;11824;51.178;13.546;2022-09-24T04:18:32;99958.00;;;7.60
4421;BMP180;11824;51.178;13.546;2022-09-24T04:21:06;99966.00;;;7.60
4421;BMP180;11824;51.178;13.546;2022-09-24T04:23:34;99965.00;;;7.60
4421;BMP180;11824;51.178;13.546;2022-09-24T04:26:04;99952.00;;;7.60
4421;BMP180;11824;51.178;13.546;2022-09-24T04:28:33;99961.00;;;7.60
4421;BMP180;11824;51.178;13.546;2022-09-24T04:31:01;99953.00;;;7.60
4421;BMP180;11824;51.178;13.546;2022-09-24T04:33:30;99953.00;;;7.60
4421;BMP180;11824;51.178;13.546;2022-09-24T04:35:58;99947.00;;;7.60
4421;BMP180;11824;51.178;13.546;2022-09-24T04:38:27;99939.00;;;7.60
4421;BMP180;11824;51.178;13.546;2022-09-24T04:41:05;99953.00;;;7.60
4421;BMP180;11824;51.178;13.546;2022-09-24T04:43:33;99944.00;;;7.60
4421;BMP180;11824;51.178;13.546;2022-09-24T04:46:03;99948.00;;;7.60
4421;BMP180;11824;51.178;13.546;2022-09-24T04:48:32;99948.00;;;7.50
4421;BMP180;11824;51.178;13.546;2022-09-24T04:51:00;99957.00;;;7.50
4421;BMP180;11824;51.178;13.546;2022-09-24T04:53:29;99951.00;;;7.50
4421;BMP180;11824;51.178;13.546;2022-09-24T04:55:58;99953.00;;;7.50
4421;BMP180;11824;51.178;13.546;2022-09-24T04:58:29;99951.00;;;7.50
4421;BMP180;11824;51.178;13.546;2022-09-24T05:01:00;99943.00;;;7.60
4421;BMP180;11824;51.178;13.546;2022-09-24T05:03:29;99937.00;;;7.60
4421;BMP180;11824;51.178;13.546;2022-09-24T05:05:57;99941.00;;;7.60
4421;BMP180;11824;51.178;13.546;2022-09-24T05:08:26;99941.00;;;7.70
4421;BMP180;11824;51.178;13.546;2022-09-24T05:10:54;99938.00;;;7.70
4421;BMP180;11824;51.178;13.546;2022-09-24T05:13:23;99941.00;;;7.80
4421;BMP180;11824;51.178;13.546;2022-09-24T05:15:53;99945.00;;;7.90
4421;BMP180;11824;51.178;13.546;2022-09-24T05:18:21;99945.00;;;7.90
4421;BMP180;11824;51.178;13.546;2022-09-24T05:20:50;99950.00;;;8.00
4421;BMP180;11824;51.178;13.546;2022-09-24T05:23:18;99953.00;;;8.10
4421;BMP180;11824;51.178;13.546;2022-09-24T05:25:47;99947.00;;;8.10
4421;BMP180;11824;51.178;13.546;2022-09-24T05:28:33;99948.00;;;8.20
4421;BMP180;11824;51.178;13.546;2022-09-24T05:31:05;99946.00;;;8.40
4421;BMP180;11824;51.178;13.546;2022-09-24T05:33:35;99947.00;;;8.50
4421;BMP180;11824;51.178;13.546;2022-09-24T05:36:04;99964.00;;;8.70
4421;BMP180;11824;51.178;13.546;2022-09-24T05:38:32;99967.00;;;8.90
4421;BMP180;11824;51.178;13.546;2022-09-24T05:41:01;99962.00;;;9.10
4421;BMP180;11824;51.178;13.546;2022-09-24T05:43:29;99969.00;;;9.30
4421;BMP180;11824;51.178;13.546;2022-09-24T05:45:58;99970.00;;;9.40
4421;BMP180;11824;51.178;13.546;2022-09-24T05:48:28;99973.00;;;9.40
4421;BMP180;11824;51.178;13.546;2022-09-24T05:50:59;99980.00;;;9.50
4421;BMP180;11824;51.178;13.546;2022-09-24T05:53:27;99982.00;;;9.50
4421;BMP180;11824;51.178;13.546;2022-09-24T05:55:56;99984.00;;;9.50
4421;BMP180;11824;51.178;13.546;2022-09-24T05:58:24;99982.00;;;9.60
4421;BMP180;11824;51.178;13.546;2022-09-24T06:00:53;99980.00;;;9.60
4421;BMP180;11824;51.178;13.546;2022-09-24T06:03:21;99968.00;;;9.60
4421;BMP180;11824;51.178;13.546;2022-09-24T06:05:51;99987.00;;;9.60
4421;BMP180;11824;51.178;13.546;2022-09-24T06:08:20;99989.00;;;9.70
4421;BMP180;11824;51.178;13.546;2022-09-24T06:10:49;99982.00;;;9.70
4421;BMP180;11824;51.178;13.546;2022-09-24T06:13:19;99977.00;;;9.70
4421;BMP180;11824;51.178;13.546;2022-09-24T06:15:48;99981.00;;;9.70
4421;BMP180;11824;51.178;13.546;2022-09-24T06:18:17;99985.00;;;9.80
4421;BMP180;11824;51.178;13.546;2022-09-24T06:20:45;99986.00;;;9.80
4421;BMP180;11824;51.178;13.546;2022-09-24T06:23:15;99985.00;;;9.90
4421;BMP180;11824;51.178;13.546;2022-09-24T06:25:48;99981.00;;;9.90
4421;BMP180;11824;51.178;13.546;2022-09-24T06:28:17;99984.00;;;10.00
4421;BMP180;11824;51.178;13.546;2022-09-24T06:30:45;99983.00;;;10.10
4421;BMP180;11824;51.178;13.546;2022-09-24T06:33:14;99979.00;;;10.20
4421;BMP180;11824;51.178;13.546;2022-09-24T06:35:43;99984.00;;;10.30
4421;BMP180;11824;51.178;13.546;2022-09-24T06:38:15;99982.00;;;10.40
4421;BMP180;11824;51.178;13.546;2022-09-24T06:40:45;99976.00;;;10.50
4421;BMP180;11824;51.178;13.546;2022-09-24T06:43:14;99978.00;;;10.60
4421;BMP180;11824;51.178;13.546;2022-09-24T06:45:44;99981.00;;;10.70
4421;BMP180;11824;51.178;13.546;2022-09-24T06:48:13;99990.00;;;10.80
4421;BMP180;11824;51.178;13.546;2022-09-24T06:50:43;99988.00;;;10.90
4421;BMP180;11824;51.178;13.546;2022-09-24T06:53:15;99973.00;;;10.90
4421;BMP180;11824;51.178;13.546;2022-09-24T06:55:43;99983.00;;;10.90
4421;BMP180;11824;51.178;13.546;2022-09-24T06:58:15;99976.00;;;11.00
4421;BMP180;11824;51.178;13.546;2022-09-24T07:00:50;99974.00;;;11.00
4421;BMP180;11824;51.178;13.546;2022-09-24T07:03:20;99972.00;;;11.00
4421;BMP180;11824;51.178;13.546;2022-09-24T07:05:49;99975.00;;;11.10
4421;BMP180;11824;51.178;13.546;2022-09-24T07:08:19;99980.00;;;11.20
4421;BMP180;11824;51.178;13.546;2022-09-24T07:10:48;99981.00;;;11.30
4421;BMP180;11824;51.178;13.546;2022-09-24T07:13:18;99987.00;;;11.40
4421;BMP180;11824;51.178;13.546;2022-09-24T07:15:49;99978.00;;;11.50
4421;BMP180;11824;51.178;13.546;2022-09-24T07:18:18;99988.00;;;11.50
4421;BMP180;11824;51.178;13.546;2022-09-24T07:20:51;99982.00;;;11.70
4421;BMP180;11824;51.178;13.546;2022-09-24T07:23:22;99979.00;;;11.80
4421;BMP180;11824;51.178;13.546;2022-09-24T07:25:55;99974.00;;;11.90
4421;BMP180;11824;51.178;13.546;2022-09-24T07:28:24;99985.00;;;12.00
4421;BMP180;11824;51.178;13.546;2022-09-24T07:30:56;99980.00;;;12.10
4421;BMP180;11824;51.178;13.546;2022-09-24T07:33:25;99972.00;;;12.20
4421;BMP180;11824;51.178;13.546;2022-09-24T07:35:54;99977.00;;;12.30
4421;BMP180;11824;51.178;13.546;2022-09-24T07:38:24;99973.00;;;12.40
4421;BMP180;11824;51.178;13.546;2022-09-24T07:40:56;99979.00;;;12.60
4421;BMP180;11824;51.178;13.546;2022-09-24T07:43:25;99986.00;;;12.70
4421;BMP180;11824;51.178;13.546;2022-09-24T07:45:54;99986.00;;;12.80
4421;BMP180;11824;51.178;13.546;2022-09-24T07:48:24;99992.00;;;12.90
4421;BMP180;11824;51.178;13.546;2022-09-24T07:50:52;99985.00;;;13.10
4421;BMP180;11824;51.178;13.546;2022-09-24T07:53:22;99983.00;;;13.30
4421;BMP180;11824;51.178;13.546;2022-09-24T07:55:51;99988.00;;;13.40
4421;BMP180;11824;51.178;13.546;2022-09-24T07:58:19;99995.00;;;13.60
4421;BMP180;11824;51.178;13.546;2022-09-24T08:00:48;99999.00;;;13.80
4421;BMP180;11824;51.178;13.546;2022-09-24T08:03:16;100000.00;;;14.00
4421;BMP180;11824;51.178;13.546;2022-09-24T08:05:45;100005.00;;;14.20
4421;BMP180;11824;51.178;13.546;2022-09-24T08:08:14;99999.00;;;14.30
4421;BMP180;11824;51.178;13.546;2022-09-24T08:10:43;100000.00;;;14.40
4421;BMP180;11824;51.178;13.546;2022-09-24T08:13:12;99992.00;;;14.60
4421;BMP180;11824;51.178;13.546;2022-09-24T08:15:40;99994.00;;;14.70
4421;BMP180;11824;51.178;13.546;2022-09-24T08:18:09;99995.00;;;14.80
4421;BMP180;11824;51.178;13.546;2022-09-24T08:20:38;99991.00;;;15.00
4421;BMP180;11824;51.178;13.546;2022-09-24T08:23:08;99987.00;;;15.10
4421;BMP180;11824;51.178;13.546;2022-09-24T08:25:37;99985.00;;;15.30
4421;BMP180;11824;51.178;13.546;2022-09-24T08:28:07;99992.00;;;15.50
4421;BMP180;11824;51.178;13.546;2022-09-24T08:30:38;99982.00;;;15.70
4421;BMP180;11824;51.178;13.546;2022-09-24T08:33:07;99979.00;;;15.80
4421;BMP180;11824;51.178;13.546;2022-09-24T08:35:35;99979.00;;;16.00
4421;BMP180;11824;51.178;13.546;2022-09-24T08:38:06;99981.00;;;16.10
4421;BMP180;11824;51.178;13.546;2022-09-24T08:40:38;99987.00;;;16.30
4421;BMP180;11824;51.178;13.546;2022-09-24T08:43:22;99982.00;;;16.40
4421;BMP180;11824;51.178;13.546;2022-09-24T08:45:56;99979.00;;;16.50
4421;BMP180;11824;51.178;13.546;2022-09-24T08:48:46;99983.00;;;16.70
4421;BMP180;11824;51.178;13.546;2022-09-24T08:51:19;99985.00;;;16.80
4421;BMP180;11824;51.178;13.546;2022-09-24T08:53:52;99984.00;;;16.90
4421;BMP180;11824;51.178;13.546;2022-09-24T08:56:26;99987.00;;;17.10
4421;BMP180;11824;51.178;13.546;2022-09-24T08:58:58;99987.00;;;17.20
4421;BMP180;11824;51.178;13.546;2022-09-24T09:01:34;99990.00;;;17.30
4421;BMP180;11824;51.178;13.546;2022-09-24T09:04:17;99996.00;;;17.40
4421;BMP180;11824;51.178;13.546;2022-09-24T09:06:58;99999.00;;;17.60
4421;BMP180;11824;51.178;13.546;2022-09-24T09:09:38;99989.00;;;17.60
4421;BMP180;11824;51.178;13.546;2022-09-24T09:12:13;99997.00;;;17.80
4421;BMP180;11824;51.178;13.546;2022-09-24T09:14:49;100000.00;;;17.90
4421;BMP180;11824;51.178;13.546;2022-09-24T09:17:29;99985.00;;;17.90
4421;BMP180;11824;51.178;13.546;2022-09-24T09:20:02;100001.00;;;18.00
4421;BMP180;11824;51.178;13.546;2022-09-24T09:22:38;100009.00;;;18.10
4421;BMP180;11824;51.178;13.546;2022-09-24T09:25:18;100006.00;;;18.20
4421;BMP180;11824;51.178;13.546;2022-09-24T09:27:50;100009.00;;;18.30
4421;BMP180;11824;51.178;13.546;2022-09-24T09:30:21;100009.00;;;18.40
4421;BMP180;11824;51.178;13.546;2022-09-24T09:33:07;99999.00;;;18.50
4421;BMP180;11824;51.178;13.546;2022-09-24T09:35:44;99991.00;;;18.50
4421;BMP180;11824;51.178;13.546;2022-09-24T09:38:20;99990.00;;;18.50
4421;BMP180;11824;51.178;13.546;2022-09-24T09:40:56;99989.00;;;18.50
4421;BMP180;11824;51.178;13.546;2022-09-24T09:43:27;99978.00;;;18.50
4421;BMP180;11824;51.178;13.546;2022-09-24T09:46:05;99982.00;;;18.50
4421;BMP180;11824;51.178;13.546;2022-09-24T09:48:42;99978.00;;;18.60
4421;BMP180;11824;51.178;13.546;2022-09-24T09:51:17;99971.00;;;18.60
4421;BMP180;11824;51.178;13.546;2022-09-24T09:53:56;99980.00;;;18.70
4421;BMP180;11824;51.178;13.546;2022-09-24T09:56:27;99968.00;;;18.70
4421;BMP180;11824;51.178;13.546;2022-09-24T09:59:05;99967.00;;;18.60
4421;BMP180;11824;51.178;13.546;2022-09-24T10:01:37;99972.00;;;18.70
4421;BMP180;11824;51.178;13.546;2022-09-24T10:04:23;99970.00;;;18.70
4421;BMP180;11824;51.178;13.546;2022-09-24T10:07:04;99973.00;;;18.80
4421;BMP180;11824;51.178;13.546;2022-09-24T10:09:33;99981.00;;;18.90
4421;BMP180;11824;51.178;13.546;2022-09-24T10:12:14;99975.00;;;19.00
4421;BMP180;11824;51.178;13.546;2022-09-24T10:14:42;99971.00;;;19.10
4421;BMP180;11824;51.178;13.546;2022-09-24T10:17:16;99979.00;;;19.20
4421;BMP180;11824;51.178;13.546;2022-09-24T10:19:46;99979.00;;;19.30
4421;BMP180;11824;51.178;13.546;2022-09-24T10:22:19;99981.00;;;19.30
4421;BMP180;11824;51.178;13.546;2022-09-24T10:24:49;99978.00;;;19.40
4421;BMP180;11824;51.178;13.546;2022-09-24T10:27:25;99970.00;;;19.50
4421;BMP180;11824;51.178;13.546;2022-09-24T10:29:55;99970.00;;;19.50
4421;BMP180;11824;51.178;13.546;2022-09-24T10:32:43;99975.00;;;19.50
4421;BMP180;11824;51.178;13.546;2022-09-24T10:35:25;99963.00;;;19.50
4421;BMP180;11824;51.178;13.546;2022-09-24T10:37:55;99964.00;;;19.40
4421;BMP180;11824;51.178;13.546;2022-09-24T10:40:25;99970.00;;;19.30
4421;BMP180;11824;51.178;13.546;2022-09-24T10:42:58;99975.00;;;19.20
4421;BMP180;11824;51.178;13.546;2022-09-24T10:48:36;99970.00;;;18.90
4421;BMP180;11824;51.178;13.546;2022-09-24T10:51:19;99974.00;;;18.80
4421;BMP180;11824;51.178;13.546;2022-09-24T10:54:05;99968.00;;;18.80
4421;BMP180;11824;51.178;13.546;2022-09-24T10:56:38;99973.00;;;18.70
4421;BMP180;11824;51.178;13.546;2022-09-24T10:59:30;99968.00;;;18.70
4421;BMP180;11824;51.178;13.546;2022-09-24T11:02:19;99969.00;;;18.60
4421;BMP180;11824;51.178;13.546;2022-09-24T11:04:54;99976.00;;;18.60
4421;BMP180;11824;51.178;13.546;2022-09-24T11:07:43;99968.00;;;18.50
4421;BMP180;11824;51.178;13.546;2022-09-24T11:10:22;99961.00;;;18.40
4421;BMP180;11824;51.178;13.546;2022-09-24T11:13:04;99964.00;;;18.40
4421;BMP180;11824;51.178;13.546;2022-09-24T11:15:54;99968.00;;;18.30
4421;BMP180;11824;51.178;13.546;2022-09-24T11:18:33;99968.00;;;18.20
4421;BMP180;11824;51.178;13.546;2022-09-24T11:21:19;99962.00;;;18.20
4421;BMP180;11824;51.178;13.546;2022-09-24T11:26:59;99950.00;;;18.20
4421;BMP180;11824;51.178;13.546;2022-09-24T11:29:47;99951.00;;;18.20
4421;BMP180;11824;51.178;13.546;2022-09-24T11:32:24;99951.00;;;18.10
4421;BMP180;11824;51.178;13.546;2022-09-24T11:35:13;99960.00;;;18.10
4421;BMP180;11824;51.178;13.546;2022-09-24T11:37:55;99943.00;;;18.10
4421;BMP180;11824;51.178;13.546;2022-09-24T11:40:41;99952.00;;;18.10
4421;BMP180;11824;51.178;13.546;2022-09-24T11:43:32;99952.00;;;18.10
4421;BMP180;11824;51.178;13.546;2022-09-24T11:46:15;99951.00;;;18.10
4421;BMP180;11824;51.178;13.546;2022-09-24T11:49:00;99951.00;;;18.10
4421;BMP180;11824;51.178;13.546;2022-09-24T11:51:41;99951.00;;;18.10
4421;BMP180;11824;51.178;13.546;2022-09-24T11:54:20;99943.00;;;18.20
4421;BMP180;11824;51.178;13.546;2022-09-24T11:56:55;99942.00;;;18.20
4421;BMP180;11824;51.178;13.546;2022-09-24T11:59:34;99934.00;;;18.20
4421;BMP180;11824;51.178;13.546;2022-09-24T12:02:10;99935.00;;;18.30
4421;BMP180;11824;51.178;13.546;2022-09-24T12:04:53;99946.00;;;18.30
4421;BMP180;11824;51.178;13.546;2022-09-24T12:07:28;99948.00;;;18.40
4421;BMP180;11824;51.178;13.546;2022-09-24T12:10:03;99943.00;;;18.40
4421;BMP180;11824;51.178;13.546;2022-09-24T12:12:34;99946.00;;;18.40
4421;BMP180;11824;51.178;13.546;2022-09-24T12:15:06;99943.00;;;18.30
4421;BMP180;11824;51.178;13.546;2022-09-24T12:17:44;99937.00;;;18.30
4421;BMP180;11824;51.178;13.546;2022-09-24T12:20:17;99930.00;;;18.30
4421;BMP180;11824;51.178;13.546;2022-09-24T12:22:49;99926.00;;;18.30
4421;BMP180;11824;51.178;13.546;2022-09-24T12:25:29;99928.00;;;18.30
4421;BMP180;11824;51.178;13.546;2022-09-24T12:28:00;99931.00;;;18.30
4421;BMP180;11824;51.178;13.546;2022-09-24T12:30:35;99924.00;;;18.40
4421;BMP180;11824;51.178;13.546;2022-09-24T12:33:30;99918.00;;;18.40
4421;BMP180;11824;51.178;13.546;2022-09-24T12:36:04;99917.00;;;18.50
4421;BMP180;11824;51.178;13.546;2022-09-24T12:38:37;99912.00;;;18.50
4421;BMP180;11824;51.178;13.546;2022-09-24T12:41:29;99917.00;;;18.50
4421;BMP180;11824;51.178;13.546;2022-09-24T12:44:01;99915.00;;;18.60
4421;BMP180;11824;51.178;13.546;2022-09-24T12:46:37;99918.00;;;18.60
4421;BMP180;11824;51.178;13.546;2022-09-24T12:49:18;99912.00;;;18.50
4421;BMP180;11824;51.178;13.546;2022-09-24T12:51:51;99915.00;;;18.50
4421;BMP180;11824;51.178;13.546;2022-09-24T12:54:23;99911.00;;;18.60
4421;BMP180;11824;51.178;13.546;2022-09-24T12:57:06;99911.00;;;18.70
4421;BMP180;11824;51.178;13.546;2022-09-24T12:59:47;99909.00;;;18.80
4421;BMP180;11824;51.178;13.546;2022-09-24T13:02:18;99907.00;;;18.90
4421;BMP180;11824;51.178;13.546;2022-09-24T13:04:51;99906.00;;;18.90
4421;BMP180;11824;51.178;13.546;2022-09-24T13:07:32;99894.00;;;19.00
4421;BMP180;11824;51.178;13.546;2022-09-24T13:10:20;99908.00;;;19.10
4421;BMP180;11824;51.178;13.546;2022-09-24T13:12:50;99900.00;;;19.10
4421;BMP180;11824;51.178;13.546;2022-09-24T13:15:35;99900.00;;;19.10
4421;BMP180;11824;51.178;13.546;2022-09-24T13:18:19;99905.00;;;19.10
4421;BMP180;11824;51.178;13.546;2022-09-24T13:21:01;99895.00;;;19.20
4421;BMP180;11824;51.178;13.546;2022-09-24T13:23:44;99897.00;;;19.20
4421;BMP180;11824;51.178;13.546;2022-09-24T13:26:28;99898.00;;;19.20
4421;BMP180;11824;51.178;13.546;2022-09-24T13:28:59;99897.00;;;19.20
4421;BMP180;11824;51.178;13.546;2022-09-24T13:31:38;99887.00;;;19.20
4421;BMP180;11824;51.178;13.546;2022-09-24T13:34:18;99891.00;;;19.20
4421;BMP180;11824;51.178;13.546;2022-09-24T13:36:51;99890.00;;;19.20
4421;BMP180;11824;51.178;13.546;2022-09-24T13:39:26;99884.00;;;19.10
4421;BMP180;11824;51.178;13.546;2022-09-24T13:42:00;99887.00;;;19.10
4421;BMP180;11824;51.178;13.546;2022-09-24T13:44:35;99881.00;;;19.10
4421;BMP180;11824;51.178;13.546;2022-09-24T13:47:10;99879.00;;;19.20
4421;BMP180;11824;51.178;13.546;2022-09-24T13:49:41;99888.00;;;19.20
4421;BMP180;11824;51.178;13.546;2022-09-24T13:52:20;99883.00;;;19.10
4421;BMP180;11824;51.178;13.546;2022-09-24T13:54:55;99883.00;;;19.10
4421;BMP180;11824;51.178;13.546;2022-09-24T13:57:29;99877.00;;;19.10
4421;BMP180;11824;51.178;13.546;2022-09-24T14:00:12;99877.00;;;19.10
4421;BMP180;11824;51.178;13.546;2022-09-24T14:02:43;99881.00;;;19.10
4421;BMP180;11824;51.178;13.546;2022-09-24T14:05:16;99868.00;;;19.10
4421;BMP180;11824;51.178;13.546;2022-09-24T14:07:53;99877.00;;;19.10
4421;BMP180;11824;51.178;13.546;2022-09-24T14:10:22;99871.00;;;19.00
4421;BMP180;11824;51.178;13.546;2022-09-24T14:13:00;99869.00;;;19.00
4421;BMP180;11824;51.178;13.546;2022-09-24T14:15:30;99866.00;;;19.00
4421;BMP180;11824;51.178;13.546;2022-09-24T14:17:59;99860.00;;;19.00
4421;BMP180;11824;51.178;13.546;2022-09-24T14:20:29;99862.00;;;19.00
4421;BMP180;11824;51.178;13.546;2022-09-24T14:22:58;99873.00;;;19.00
4421;BMP180;11824;51.178;13.546;2022-09-24T14:25:28;99868.00;;;18.90
4421;BMP180;11824;51.178;13.546;2022-09-24T14:27:59;99867.00;;;18.90
4421;BMP180;11824;51.178;13.546;2022-09-24T14:30:30;99863.00;;;18.90
4421;BMP180;11824;51.178;13.546;2022-09-24T14:33:02;99865.00;;;18.90
4421;BMP180;11824;51.178;13.546;2022-09-24T14:35:33;99864.00;;;18.90
4421;BMP180;11824;51.178;13.546;2022-09-24T14:38:05;99857.00;;;18.90
4421;BMP180;11824;51.178;13.546;2022-09-24T14:40:39;99861.00;;;18.80
4421;BMP180;11824;51.178;13.546;2022-09-24T14:43:16;99863.00;;;18.80
4421;BMP180;11824;51.178;13.546;2022-09-24T14:45:47;99863.00;;;18.80
4421;BMP180;11824;51.178;13.546;2022-09-24T14:48:19;99869.00;;;18.80
4421;BMP180;11824;51.178;13.546;2022-09-24T14:50:52;99864.00;;;18.80
4421;BMP180;11824;51.178;13.546;2022-09-24T14:53:22;99869.00;;;18.80
4421;BMP180;11824;51.178;13.546;2022-09-24T14:55:51;99873.00;;;18.70